Timeline UpdatesTrip UpdatesNews PostsPvt PostsTravel TipsAdmin PostsConv PostsFollowed PostsChat RequestsBlog PostsPNR Posts

Disclaimer
Search
 
 
Thu Apr 17, 2014 16:35:16 ISTHomeTrainsΣChainsAtlasPNRForumGalleryNewsFAQTripsMembersLoginFeedback
No Recent News for this Train
Other Trains in the News **new
Latest...
.
Sat Jan 26, 2013 (03:08PM)
⇐ Return Journey: Train# 59440

59439/Mumbai Central-Ahmedabad Passenger

Feb 22 2014 (11:49PM)
Change Departure Station:
Change Arrival Station:
Post a Train Travel TipPost a Train Travel Tip **new
Post a Comment/Question/Picture/VideoPost a Comment/Question/Picture/Video
Pantry/Catering
✕ NO Pantry Car
✕ NO Catering
RSA - Rake Sharing
59439 and 59442 share rakes.
Rake/Coach Composition
LOCO-SLR-GEN-GEN-GEN-S3-S2-S1-LD-GEN-GEN-GEN-GEN-GEN-GEN-GEN-SLR
Loco
BL WCAM-1/BRC WAG-5A
News    PNR    Forum    Time-Table    Availability    Fare Chart    Map    Arr/Dep History    Trips    Gallery    ΣChains    X/O    Timeline    
Travel Time: 5h 11m    21 halts    Distance: 188 km    Avg Speed: 36 km/hr
Type: Passenger
Zone: WR/Western
Departs @ 12:15 (Avg on time)
Platform# 4
SMTWTFS
Mumbai Central/BCT 
Arrives @ 17:26 (Avg 14m late)
Platform# ???
SMTWTFS
Atul/ATUL 

21 halts. 42 intermediate Stations between Mumbai Central and Atul

Show ALL intermediate Stations  Show Old Time-Table

#CodeStation NameX/OArrivesAvgDepartsAvgHaltPFDay#KmSpeedElevZoneAddress
1BCT»Mumbai Central (9)»  -12:15+0410.0273mWRMumbai-400 008, Maharashtra
2DDRMumbai Dadar Western (6)  12:28+312:30+72m515.9306mWRMumbai, Maharashtra
3ADHMumbai Andheri (9)  12:52+412:54+52m8117.13112mWRMumbai, Maharashtra
4BVIMumbai Borivali (8)X  13:18+113:20+132m6129.73519mWRMumbai - 400092, Maharashtra
5BSRVasai Road (7)  13:50+313:52+32m4147.1467mWRThane-401202, Maharashtra
6VRVirar (8)X  14:03+314:05+52m3155.5466mWRThane, Maharashtra
7VTNVaitarna (2)  14:16+514:18+42m1164.0673mWRThane, Maharashtra
8SAHSaphale (2)X  14:25+914:27+82m1171.8778mWRThane, Maharashtra
9KLVKelve Road (3)  14:32+1014:34+112m2178.27210mWRThane, Maharashtra
10PLGPalghar (3)XO  14:41+1214:43+152m1186.65619mWRPalghar, Maharashtra
11BORBoisar (3)XO  14:55+1514:57+272m1197.91817mWRBoisar Tel.no-02525-266626, Maharashtra
12VGNVangaon (3)X  15:28+815:30+112m--1107.35311mWRThane, Maharashtra
13DRDDahanu Road (5)X  15:44+915:46+102m11119.66712mWRDahanu, Maharashtra
14GVDGholvad (4)  15:56+1015:58+102m--1130.86114mWRGholvad, Maharashtra
15UBRUmbargam Road (3)XO  16:07+1116:09+122m11139.92930mWRUmbergaon, Gujarat
16SJNSanjan (3)X  16:20+1016:22+122m--1145.36322mWRSanjan, Gujarat
17BLDBhilad (3)  16:33+1316:35+182m--1156.95833mWRBhilad, Gujarat
18KEBKarambeli (2)XO  16:40+1116:42+102m--1161.72429mWRNational Highway 8, Gujarat
19VAPIVapi (3)X  16:58+817:00+102m11168.15027mWRVapi, Gujarat
20BAGDBagwada (2)XO  17:08+1017:09+101m--1174.84322mWRNH8, Gujarat
21UVDUdvada (3)X  17:13+1117:15+112m--1177.77218mWRUdvada, Gujarat
22PADPardi (3)X  17:20+1317:22+132m--1183.76019mWRValsad, Gujarat
23ATUL•Atul (3)•O  17:26+1417:28+142m--1187.72922mWRValsad, Gujarat
24BLValsad (3)XO  17:42+818:00+718m21194.46715mWRValsad, Gujarat
25DGIDungri (3)  18:08+1118:10+112m11203.36120mWRNH 8, Gujarat
26JRSJoravasan (2)  18:15+1518:17+142m11208.44015mWRJoravasan, Gujarat
27BIMBilimora Junction (4)XO  18:23+1118:25+192m--1212.31811mWRBilimora, Gujarat
28AMLAmalsad (3)  18:44+818:46+112m--1217.94612mWRAmalsad, Gujarat
29ACLAncheli (2)  18:51+1018:53+92m--1221.73420mWRNavsari, Gujarat
30VDHVedchha (3)X  18:59+919:01+172m--1225.12313mWRNavsari, Gujarat
31NVSNavsari (3)X  19:23+819:25+92m31233.55114mWRNavsari, Gujarat
32MRLMaroli (3)XO  19:35+919:37+142m--1241.92715mWRMaroli, Gujarat
33SCHSachin (3)XO  19:52+719:54+72m11248.64911mWRKansad Road Sachin, Gujarat
34BHETBhestan (2)  20:01+820:03+122m11254.32613mWRSurat, Gujarat
35UDNUdhna Junction (3)XO  20:14+1120:16+212m11259.1716mWRUdhna 394210, Gujarat
36STSurat (4)XO  20:49+221:09+420m21263.13919mWRSurat 395001, Gujarat
37URNUtran (3)O  21:15+1121:17+112m--1267.06415mWRSurat, Gujarat
38KSEKosad (2)  21:20+1521:22+162m--1270.13717mWRSurat, Gujarat
39GTXGothangam (2)XO  21:28+1721:30+212m--1273.82019mWRAmroli Sayan Rd, Gujarat
40SYNSayan (3)  21:39+1721:41+172m--1276.85421mWRSayan Satellite town, Gujarat
41KIMKim (2)  21:52+1821:54+172m--1286.75818mWRNH 8, Gujarat
42KSBKosamba Junction (3)X  22:02+1822:04+172m--1294.56630mWRKosamba, Gujarat
43HATHathuran (2)  22:08+1922:10+182m--1298.94632mWRKosamba, Gujarat
44PAOPanoli (3)XO  22:15+1922:17+222m--1302.73629mWRPanoli, Gujarat
45AKVAnkleshwar Junction (4)X  22:34+1722:36+172m21313.04019mWRAnkleshwar, Gujarat
46BHBharuch Junction (5)X  22:50+1422:52+152m31322.46619mWRBharuch, Gujarat
47NIUNabipur (3)X  23:03+1823:05+182m--1334.45824mWRNabipur, Gujarat
48VREVarediya (4)X  23:12+1923:14+202m--1341.26621mWRNH 8, Gujarat
49PLJPalej (4)XO  23:20+2323:22+292m--1347.84429mWRPalej, Gujarat
50MYGMiyagam Karjan (2)X  23:43+2323:45+232m21363.06329mWRKarjan, Gujarat
51ITAItola (4)O  23:56+2723:58+262m--1374.62627mWRNational Highway 8, Gujarat
52BRCVadodara Junction (7)X  00:40+1600:50+1710m--2392.93136mWRVadodara, Gujarat
53BJWBajva (3)X  01:04+2601:06+252m--2400.12338mWRVadodara, Gujarat
54RNORanoli (2)  01:16+2601:18+262m--2403.98339mWRVadodara District, Gujarat
55NDRNandesari (2)X  01:21+2601:23+252m--2408.16042mWRNandesari, Gujarat
56VDAVasad Junction (3)XO  01:28+2601:30+262m--2413.14640mWRVasad, Gujarat
57ADDAdas Road (4)X  01:36+2501:38+242m--2417.74142mWRNational Highway 8, Gujarat
58VXDVadod (3)X  01:44+2401:46+242m--2421.82444mWRAnand District, Gujarat
59ANNDAnand Junction (6)  02:03+1602:08+175m--2428.67444mWRAnand, Gujarat
60KBRVKanjari Boriyavi Junction (4)X  02:14+2002:16+202m--2436.14739mWRKanjari, Gujarat
61UTDUtarsanda (4)XO  02:23+2102:25+212m--2441.63340mWRUttarsanda, Gujarat
62NDNadiad Junction (4)XO  02:35+1802:43+178m--2447.16237mWRNadiad, Gujarat
63GTEGothaj (2)XO  02:52+1802:54+222m--2456.32832mWRState Highway 3, Gujarat
64MHDMahemdavad Kheda Road (4)X  03:12+1203:14+152m--2464.65037mWRMahemdavad, Gujarat
65NEPNenpur (2)X  03:19+1503:21+152m--2468.83435mWRState Highway 3, Gujarat
66KANJKanij (3)  03:26+1403:28+142m--2471.73339mWRBareja-Barejadi Rd, Gujarat
67BJDBarejadi (3)XO  03:36+1303:38+132m--2476.01442mWRBareja-Barejadi Rd, Gujarat
68GERGeratpur (2)O  03:52+803:54+122m--2479.47944mWRAhmadabad, Gujarat
69VTAVatva (4)XO  03:58+1404:00+142m--2484.64849mWRDist. Ahmedabad 382445, Gujarat
70MANManinagar (2)O  04:06+1304:08+132m12489.51150mWRAhmadabad, Gujarat
71ADIAhmedabad Junction (12)  04:25+8-42492.6-51mWRAhmedabad, Gujarat
Scroll to Top
Scroll to Bottom